Time;durP1;ratioP1;P1;durP2;ratioP2;P2;SDS_P1;SDS_P2;PMS_P1;PMS_P2;Temp;Humidity;BMP_temperature;BMP_pressure;BME280_temperature;BME280_humidity;BME280_pressure;Samples;Min_cycle;Max_cycle;Signal;HPM_P1;HPM_P2
2023/06/11 00:00:43;;;;;;;;;;;19.10;99.90;;;;;;5023001;28;20400;-64
2023/06/11 00:03:20;;;;;;;;;;;19.10;99.90;;;;;;5021864;28;19924;-64
2023/06/11 00:05:52;;;;;;;;;;;19.00;99.90;;;;;;5019981;28;20316;-65
2023/06/11 00:08:24;;;;;;;;;;;18.90;99.90;;;;;;5014502;28;19925;-64
2023/06/11 00:10:55;;;;;;;;;;;18.90;99.90;;;;;;5011136;28;19932;-64
2023/06/11 00:13:27;;;;;;;;;;;18.80;99.90;;;;;;5017944;28;19981;-64
2023/06/11 00:15:59;;;;;;;;;;;18.80;99.90;;;;;;5031151;28;19952;-64
2023/06/11 00:18:31;;;;;;;;;;;18.90;99.90;;;;;;5028998;28;20015;-64
2023/06/11 00:21:03;;;;;;;;;;;18.80;99.90;;;;;;5026775;28;19929;-65
2023/06/11 00:23:36;;;;;;;;;;;18.80;99.90;;;;;;5039307;28;19926;-64
2023/06/11 00:26:08;;;;;;;;;;;18.80;99.90;;;;;;5021858;28;20301;-64
2023/06/11 00:28:35;;;;;;;;;;;18.80;99.90;;;;;;5019358;28;19932;-65
2023/06/11 00:31:07;;;;;;;;;;;18.80;99.90;;;;;;5034175;28;19942;-64
2023/06/11 00:33:39;;;;;;;;;;;18.70;99.90;;;;;;5015557;28;20023;-65
2023/06/11 00:36:07;;;;;;;;;;;18.70;99.90;;;;;;5029803;28;19925;-64
2023/06/11 00:38:34;;;;;;;;;;;18.70;99.90;;;;;;5012834;28;20389;-64
2023/06/11 00:41:06;;;;;;;;;;;18.70;99.90;;;;;;5011289;28;19936;-64
2023/06/11 00:43:38;;;;;;;;;;;18.70;99.90;;;;;;5014082;28;19929;-64
2023/06/11 00:46:10;;;;;;;;;;;18.60;99.90;;;;;;5024589;28;19931;-64
2023/06/11 00:48:42;;;;;;;;;;;18.70;99.90;;;;;;5022176;28;19925;-64
2023/06/11 00:51:15;;;;;;;;;;;18.60;99.90;;;;;;5002320;28;20324;-64
2023/06/11 00:53:47;;;;;;;;;;;18.50;99.90;;;;;;5022509;28;20396;-64
2023/06/11 00:56:17;;;;;;;;;;;18.40;99.90;;;;;;5024237;28;19925;-64
2023/06/11 00:58:49;;;;;;;;;;;18.40;99.90;;;;;;5027594;28;19955;-64
2023/06/11 01:01:26;;;;;;;;;;;18.40;99.90;;;;;;5007029;28;19926;-64
2023/06/11 01:04:00;;;;;;;;;;;18.40;99.90;;;;;;5012018;28;20016;-64
2023/06/11 01:06:33;;;;;;;;;;;18.40;99.90;;;;;;5013173;28;19929;-64
2023/06/11 01:09:06;;;;;;;;;;;18.40;99.90;;;;;;5030297;28;19979;-64
2023/06/11 01:11:38;;;;;;;;;;;18.40;99.90;;;;;;5023328;28;19929;-64
2023/06/11 01:14:06;;;;;;;;;;;18.30;99.90;;;;;;5038810;28;19992;-64
2023/06/11 01:16:52;;;;;;;;;;;18.30;99.90;;;;;;5020182;28;19929;-64
2023/06/11 01:19:33;;;;;;;;;;;18.20;99.90;;;;;;5031835;28;19935;-64
2023/06/11 01:22:18;;;;;;;;;;;18.20;99.90;;;;;;5012066;28;19929;-64
2023/06/11 01:24:51;;;;;;;;;;;18.20;99.90;;;;;;5024388;28;19930;-64
2023/06/11 01:27:24;;;;;;;;;;;18.20;99.90;;;;;;5011377;28;19983;-64
2023/06/11 01:29:57;;;;;;;;;;;18.20;99.90;;;;;;5012011;28;20025;-64
2023/06/11 01:32:30;;;;;;;;;;;18.30;99.90;;;;;;5012448;28;19998;-64
2023/06/11 01:35:06;;;;;;;;;;;18.30;99.90;;;;;;5022184;28;20393;-64
2023/06/11 01:37:45;;;;;;;;;;;18.30;99.90;;;;;;5031237;28;19925;-64
2023/06/11 01:40:16;;;;;;;;;;;18.30;99.90;;;;;;5028344;28;20412;-64
2023/06/11 01:42:54;;;;;;;;;;;18.30;99.90;;;;;;5001671;28;20025;-64
2023/06/11 01:45:26;;;;;;;;;;;18.20;99.90;;;;;;5008292;28;20020;-64
2023/06/11 01:47:59;;;;;;;;;;;18.10;99.90;;;;;;5014790;28;19932;-64
2023/06/11 01:50:33;;;;;;;;;;;18.10;99.90;;;;;;5014147;28;20367;-64
2023/06/11 01:53:00;;;;;;;;;;;18.10;99.90;;;;;;5010458;28;19925;-64
2023/06/11 01:55:28;;;;;;;;;;;18.20;99.90;;;;;;5027455;28;19935;-63
2023/06/11 01:58:00;;;;;;;;;;;18.10;99.90;;;;;;5014630;28;19936;-64
2023/06/11 02:00:32;;;;;;;;;;;18.00;99.90;;;;;;5027654;28;20068;-64
2023/06/11 02:03:05;;;;;;;;;;;17.90;99.90;;;;;;5010187;28;19925;-64
2023/06/11 02:05:32;;;;;;;;;;;17.90;99.90;;;;;;5025118;28;19971;-64
2023/06/11 02:08:03;;;;;;;;;;;17.80;99.90;;;;;;5007290;28;19925;-64
2023/06/11 02:10:35;;;;;;;;;;;17.80;99.90;;;;;;5030489;28;19925;-64
2023/06/11 02:13:07;;;;;;;;;;;17.80;99.90;;;;;;5028332;28;19925;-64
2023/06/11 02:15:39;;;;;;;;;;;17.90;99.90;;;;;;5029372;28;20100;-64
2023/06/11 02:18:10;;;;;;;;;;;17.80;99.90;;;;;;5010162;28;19925;-64
2023/06/11 02:20:42;;;;;;;;;;;17.80;99.90;;;;;;5028669;28;19929;-64
2023/06/11 02:23:16;;;;;;;;;;;17.90;99.90;;;;;;5045564;28;19925;-64
2023/06/11 02:25:47;;;;;;;;;;;17.90;99.90;;;;;;5042863;28;19968;-64
2023/06/11 02:28:19;;;;;;;;;;;17.90;99.90;;;;;;5024689;28;19935;-64
2023/06/11 02:30:51;;;;;;;;;;;17.90;99.90;;;;;;5029220;28;20016;-64
2023/06/11 02:33:23;;;;;;;;;;;17.90;99.90;;;;;;5029349;28;20055;-64
2023/06/11 02:35:49;;;;;;;;;;;17.90;99.90;;;;;;5019033;28;19925;-64
2023/06/11 02:38:21;;;;;;;;;;;17.90;99.90;;;;;;5017004;28;19975;-64
2023/06/11 02:40:53;;;;;;;;;;;17.80;99.90;;;;;;4999301;28;19936;-64
2023/06/11 02:43:25;;;;;;;;;;;17.80;99.90;;;;;;5014152;28;19929;-64
2023/06/11 02:45:51;;;;;;;;;;;17.80;99.90;;;;;;5014024;28;20025;-64
2023/06/11 02:48:23;;;;;;;;;;;17.80;99.90;;;;;;5015705;28;19951;-64
2023/06/11 02:50:55;;;;;;;;;;;17.70;99.90;;;;;;5025700;28;19925;-64
2023/06/11 02:53:26;;;;;;;;;;;17.60;99.90;;;;;;5030642;28;19933;-64
2023/06/11 02:55:58;;;;;;;;;;;17.60;99.90;;;;;;5022446;28;19929;-64
2023/06/11 02:58:29;;;;;;;;;;;17.50;99.90;;;;;;5038381;28;19925;-64
2023/06/11 03:01:01;;;;;;;;;;;17.50;99.90;;;;;;5025482;28;20467;-64
2023/06/11 03:03:28;;;;;;;;;;;17.50;99.90;;;;;;5028903;28;19929;-64
2023/06/11 03:06:00;;;;;;;;;;;17.50;99.90;;;;;;5028290;28;20314;-64
2023/06/11 03:08:33;;;;;;;;;;;17.50;99.90;;;;;;4996573;28;20360;-64
2023/06/11 03:11:04;;;;;;;;;;;17.40;99.90;;;;;;5051970;22;19925;-67
2023/06/11 03:13:35;;;;;;;;;;;17.50;99.90;;;;;;5051153;28;19925;-67
2023/06/11 03:16:07;;;;;;;;;;;17.40;99.90;;;;;;5051661;28;19925;-67
2023/06/11 03:18:39;;;;;;;;;;;17.40;99.90;;;;;;5051685;28;19932;-67
2023/06/11 03:21:11;;;;;;;;;;;17.40;99.90;;;;;;5035464;28;19960;-67
2023/06/11 03:23:42;;;;;;;;;;;17.40;99.90;;;;;;5031298;28;19947;-67
2023/06/11 03:26:10;;;;;;;;;;;17.40;99.90;;;;;;5063041;28;19976;-66
2023/06/11 03:28:44;;;;;;;;;;;17.40;99.90;;;;;;5051252;28;19925;-66
2023/06/11 03:31:18;;;;;;;;;;;17.50;99.90;;;;;;5049075;28;19929;-66
2023/06/11 03:33:50;;;;;;;;;;;17.50;99.90;;;;;;5051433;28;19929;-67
2023/06/11 03:36:22;;;;;;;;;;;17.50;99.90;;;;;;5050003;28;20327;-67
2023/06/11 03:38:55;;;;;;;;;;;17.50;99.90;;;;;;5033066;28;19951;-65
2023/06/11 03:41:22;;;;;;;;;;;17.40;99.90;;;;;;5050888;28;19932;-66
2023/06/11 03:43:54;;;;;;;;;;;17.30;99.90;;;;;;5048997;28;19979;-66
2023/06/11 03:46:22;;;;;;;;;;;17.20;99.90;;;;;;5051214;28;19932;-66
2023/06/11 03:48:54;;;;;;;;;;;17.10;99.90;;;;;;5042851;28;19924;-66
2023/06/11 03:51:26;;;;;;;;;;;17.20;99.90;;;;;;5049243;28;20383;-67
2023/06/11 03:53:58;;;;;;;;;;;17.30;99.90;;;;;;5034157;28;19960;-66
2023/06/11 03:56:30;;;;;;;;;;;17.40;99.90;;;;;;5044652;28;19925;-66
2023/06/11 03:59:01;;;;;;;;;;;17.50;99.90;;;;;;5050910;28;19928;-66
2023/06/11 04:01:33;;;;;;;;;;;17.40;99.90;;;;;;5050635;28;20024;-66
2023/06/11 04:04:05;;;;;;;;;;;17.40;99.90;;;;;;5050863;28;19928;-66
2023/06/11 04:06:38;;;;;;;;;;;17.30;99.90;;;;;;5050776;28;20393;-66
2023/06/11 04:09:10;;;;;;;;;;;17.30;99.90;;;;;;5050875;28;19931;-66
2023/06/11 04:11:43;;;;;;;;;;;17.30;99.90;;;;;;5049380;28;19932;-66
2023/06/11 04:14:16;;;;;;;;;;;17.20;99.90;;;;;;5050710;28;20023;-67
2023/06/11 04:16:48;;;;;;;;;;;17.20;99.90;;;;;;5034860;28;19928;-67
2023/06/11 04:19:20;;;;;;;;;;;17.20;99.90;;;;;;5050337;28;19936;-66
2023/06/11 04:21:53;;;;;;;;;;;17.20;99.90;;;;;;5029393;28;20289;-68
2023/06/11 04:24:25;;;;;;;;;;;17.20;99.90;;;;;;5039255;28;19925;-67
2023/06/11 04:26:58;;;;;;;;;;;17.20;99.90;;;;;;5046343;28;20285;-67
2023/06/11 04:29:30;;;;;;;;;;;17.20;99.90;;;;;;5050206;28;19932;-66
2023/06/11 04:32:02;;;;;;;;;;;17.20;99.90;;;;;;5060917;28;19924;-66
2023/06/11 04:34:37;;;;;;;;;;;17.20;99.90;;;;;;5050403;28;20599;-67
2023/06/11 04:37:09;;;;;;;;;;;17.10;99.90;;;;;;5047772;28;19932;-67
2023/06/11 04:39:41;;;;;;;;;;;17.00;99.90;;;;;;5050387;28;20273;-67
2023/06/11 04:42:07;;;;;;;;;;;17.00;99.90;;;;;;5054708;28;20383;-67
2023/06/11 04:44:39;;;;;;;;;;;17.00;99.90;;;;;;5050270;28;19986;-67
2023/06/11 04:47:13;;;;;;;;;;;17.00;99.90;;;;;;5050278;28;20036;-67
2023/06/11 04:49:52;;;;;;;;;;;16.90;99.90;;;;;;5034539;28;19931;-66
2023/06/11 04:52:26;;;;;;;;;;;16.90;99.90;;;;;;5050024;28;19935;-66
2023/06/11 04:55:01;;;;;;;;;;;16.90;99.90;;;;;;5043383;28;20046;-66
2023/06/11 04:57:33;;;;;;;;;;;16.90;99.90;;;;;;5050251;28;19925;-67
2023/06/11 05:00:10;;;;;;;;;;;17.00;99.90;;;;;;5030697;28;19932;-66
2023/06/11 05:02:44;;;;;;;;;;;16.90;99.90;;;;;;5049366;28;19964;-66
2023/06/11 05:05:16;;;;;;;;;;;16.90;99.90;;;;;;5061146;28;20372;-66
2023/06/11 05:07:49;;;;;;;;;;;16.90;99.90;;;;;;5049477;28;19960;-66
2023/06/11 05:10:21;;;;;;;;;;;16.90;99.90;;;;;;5048784;28;19925;-67
2023/06/11 05:12:52;;;;;;;;;;;17.00;99.90;;;;;;5043567;28;19928;-66
2023/06/11 05:15:20;;;;;;;;;;;17.00;99.90;;;;;;5058079;28;20418;-66
2023/06/11 05:17:51;;;;;;;;;;;17.00;99.90;;;;;;5045361;28;19929;-66
2023/06/11 05:20:26;;;;;;;;;;;17.00;99.90;;;;;;5043175;28;20392;-65
2023/06/11 05:23:03;;;;;;;;;;;17.00;99.90;;;;;;5049767;28;19972;-67
2023/06/11 05:25:35;;;;;;;;;;;17.00;99.90;;;;;;5057304;28;20024;-66
2023/06/11 05:28:07;;;;;;;;;;;17.10;99.90;;;;;;5033943;28;20380;-67
2023/06/11 05:30:45;;;;;;;;;;;17.10;99.90;;;;;;5049744;28;19929;-68
2023/06/11 05:33:17;;;;;;;;;;;17.20;99.90;;;;;;5052196;28;20102;-67
2023/06/11 05:35:45;;;;;;;;;;;17.20;99.90;;;;;;5069838;28;19925;-67
2023/06/11 05:38:18;;;;;;;;;;;17.30;99.90;;;;;;5053681;28;20403;-66
2023/06/11 05:40:50;;;;;;;;;;;17.30;99.90;;;;;;5048343;28;19932;-66
2023/06/11 05:43:17;;;;;;;;;;;17.40;99.90;;;;;;5053598;28;19925;-66
2023/06/11 05:45:49;;;;;;;;;;;17.40;99.90;;;;;;5059224;28;19928;-66
2023/06/11 05:48:19;;;;;;;;;;;17.50;99.90;;;;;;5050999;28;19929;-66
2023/06/11 05:50:47;;;;;;;;;;;17.50;99.90;;;;;;5052949;28;19924;-66
2023/06/11 05:53:18;;;;;;;;;;;17.60;99.90;;;;;;5043486;28;19929;-66
2023/06/11 05:55:51;;;;;;;;;;;17.60;99.90;;;;;;5041945;28;19925;-67
2023/06/11 05:58:23;;;;;;;;;;;17.70;99.90;;;;;;5048717;28;20385;-67
2023/06/11 06:00:56;;;;;;;;;;;17.70;99.90;;;;;;5053213;28;20382;-67
2023/06/11 06:03:29;;;;;;;;;;;17.80;99.90;;;;;;5048025;28;19925;-67
2023/06/11 06:06:01;;;;;;;;;;;17.90;99.90;;;;;;5052297;28;19925;-68
2023/06/11 06:08:33;;;;;;;;;;;17.90;99.90;;;;;;5036586;28;19925;-67
2023/06/11 06:11:06;;;;;;;;;;;17.90;99.90;;;;;;5063590;28;19925;-67
2023/06/11 06:13:39;;;;;;;;;;;18.00;99.90;;;;;;5050774;28;19939;-66
2023/06/11 06:16:07;;;;;;;;;;;18.00;99.90;;;;;;5052616;28;20010;-67
2023/06/11 06:18:41;;;;;;;;;;;18.10;99.90;;;;;;5051204;28;19925;-66
2023/06/11 06:21:13;;;;;;;;;;;18.20;99.90;;;;;;5035199;28;19932;-66
2023/06/11 06:23:45;;;;;;;;;;;18.20;99.90;;;;;;5061592;28;19925;-67
2023/06/11 06:26:13;;;;;;;;;;;18.30;99.90;;;;;;5052597;28;19925;-66
2023/06/11 06:28:45;;;;;;;;;;;18.40;99.90;;;;;;5046570;28;20324;-67
2023/06/11 06:31:17;;;;;;;;;;;18.40;99.90;;;;;;5052391;28;19925;-67
2023/06/11 06:33:44;;;;;;;;;;;18.50;99.90;;;;;;5052405;28;20464;-67
2023/06/11 06:36:13;;;;;;;;;;;18.60;99.90;;;;;;5052176;28;19925;-67
2023/06/11 06:38:40;;;;;;;;;;;18.70;99.90;;;;;;5061980;28;19929;-67
2023/06/11 06:41:08;;;;;;;;;;;18.70;99.90;;;;;;5051929;28;19925;-67
2023/06/11 06:43:40;;;;;;;;;;;18.80;99.90;;;;;;5050168;28;19936;-67
2023/06/11 06:46:16;;;;;;;;;;;18.90;99.90;;;;;;5037685;28;19932;-66
2023/06/11 06:48:50;;;;;;;;;;;18.90;99.90;;;;;;5049996;28;19948;-66
2023/06/11 06:51:22;;;;;;;;;;;19.00;99.90;;;;;;5050296;28;20281;-67
2023/06/11 06:53:54;;;;;;;;;;;19.10;99.90;;;;;;5051159;28;19925;-67
2023/06/11 06:56:26;;;;;;;;;;;19.20;99.90;;;;;;5035942;28;20438;-68
2023/06/11 06:58:54;;;;;;;;;;;19.20;99.90;;;;;;5063922;28;19924;-68
2023/06/11 07:01:26;;;;;;;;;;;19.30;99.90;;;;;;5062681;28;19925;-67
2023/06/11 07:03:58;;;;;;;;;;;19.30;99.90;;;;;;5050862;28;20383;-66
2023/06/11 07:06:30;;;;;;;;;;;19.40;99.90;;;;;;5035974;28;20402;-66
2023/06/11 07:08:57;;;;;;;;;;;19.50;99.90;;;;;;5051200;28;20000;-68
2023/06/11 07:11:24;;;;;;;;;;;19.60;99.90;;;;;;5051231;28;19984;-68
2023/06/11 07:13:56;;;;;;;;;;;19.70;99.90;;;;;;5051373;28;19925;-68
2023/06/11 07:16:28;;;;;;;;;;;19.80;99.90;;;;;;5033199;28;20384;-68
2023/06/11 07:19:02;;;;;;;;;;;19.90;99.90;;;;;;5049968;28;19965;-68
2023/06/11 07:21:36;;;;;;;;;;;20.00;99.90;;;;;;5045768;28;19972;-67
2023/06/11 07:24:08;;;;;;;;;;;20.10;99.90;;;;;;5063766;28;19925;-68
2023/06/11 07:26:42;;;;;;;;;;;20.30;99.90;;;;;;5039355;28;20419;-68
2023/06/11 07:29:14;;;;;;;;;;;20.40;99.90;;;;;;5049834;28;19947;-68
2023/06/11 07:31:47;;;;;;;;;;;20.50;99.90;;;;;;5047677;28;20015;-66
2023/06/11 07:34:15;;;;;;;;;;;20.60;99.90;;;;;;5025853;28;19948;-67
2023/06/11 07:36:42;;;;;;;;;;;20.60;99.90;;;;;;5047207;28;19978;-67
2023/06/11 07:39:14;;;;;;;;;;;20.70;99.90;;;;;;5048151;28;20041;-67
2023/06/11 07:41:46;;;;;;;;;;;20.80;99.90;;;;;;5045663;28;19929;-67
2023/06/11 07:44:18;;;;;;;;;;;20.80;99.90;;;;;;5031995;28;20012;-67
2023/06/11 07:46:50;;;;;;;;;;;20.90;99.90;;;;;;5042177;28;19946;-67
2023/06/11 07:49:22;;;;;;;;;;;21.10;99.90;;;;;;5043569;28;19951;-67
2023/06/11 07:51:54;;;;;;;;;;;21.20;99.90;;;;;;5044738;28;20343;-67
2023/06/11 07:54:27;;;;;;;;;;;21.20;99.90;;;;;;5047114;28;20406;-66
2023/06/11 07:56:59;;;;;;;;;;;21.30;99.90;;;;;;5049510;28;19936;-67
2023/06/11 07:59:31;;;;;;;;;;;21.40;99.90;;;;;;5050999;28;20307;-67
2023/06/11 08:02:03;;;;;;;;;;;21.50;99.90;;;;;;5050871;28;19929;-67
2023/06/11 08:04:35;;;;;;;;;;;21.50;99.90;;;;;;5047467;28;19925;-67
2023/06/11 08:07:08;;;;;;;;;;;21.50;99.90;;;;;;5050690;28;19924;-67
2023/06/11 08:09:40;;;;;;;;;;;21.60;99.90;;;;;;5051188;28;19940;-67
2023/06/11 08:12:12;;;;;;;;;;;21.60;99.90;;;;;;5051609;28;19925;-67
2023/06/11 08:14:44;;;;;;;;;;;21.70;99.90;;;;;;5050524;28;19925;-67
2023/06/11 08:17:16;;;;;;;;;;;21.80;99.90;;;;;;5051700;28;20019;-68
2023/06/11 08:19:48;;;;;;;;;;;21.90;99.90;;;;;;5056281;28;20281;-68
2023/06/11 08:22:20;;;;;;;;;;;22.00;99.90;;;;;;5033562;28;20023;-67
2023/06/11 08:24:52;;;;;;;;;;;22.20;99.90;;;;;;5051088;28;19925;-67
2023/06/11 08:27:18;;;;;;;;;;;22.20;99.90;;;;;;5050283;28;19960;-67
2023/06/11 08:29:50;;;;;;;;;;;22.30;99.90;;;;;;5051492;28;19939;-67
2023/06/11 08:32:22;;;;;;;;;;;22.40;99.90;;;;;;5051191;28;19931;-67
2023/06/11 08:34:54;;;;;;;;;;;22.50;99.90;;;;;;5051600;28;19931;-67
2023/06/11 08:37:26;;;;;;;;;;;22.60;99.90;;;;;;5032269;28;20024;-68
2023/06/11 08:39:58;;;;;;;;;;;22.70;99.90;;;;;;5053168;28;19929;-68
2023/06/11 08:42:30;;;;;;;;;;;22.70;99.90;;;;;;5049172;28;19933;-67
2023/06/11 08:45:02;;;;;;;;;;;22.80;99.90;;;;;;5051205;28;20500;-67
2023/06/11 08:47:38;;;;;;;;;;;22.90;99.90;;;;;;5050749;28;19931;-66
2023/06/11 08:50:10;;;;;;;;;;;23.00;99.90;;;;;;5048971;28;20293;-67
2023/06/11 08:52:38;;;;;;;;;;;23.10;99.90;;;;;;5049694;28;20024;-66
2023/06/11 08:55:06;;;;;;;;;;;23.20;99.90;;;;;;5049338;28;20312;-67
2023/06/11 08:57:38;;;;;;;;;;;23.20;99.90;;;;;;5046896;28;19929;-67
2023/06/11 09:00:10;;;;;;;;;;;23.30;99.90;;;;;;5031907;28;19925;-67
2023/06/11 09:02:36;;;;;;;;;;;23.50;99.90;;;;;;5048132;28;20011;-67
2023/06/11 09:05:10;;;;;;;;;;;23.60;99.90;;;;;;5065468;28;20543;-67
2023/06/11 09:07:49;;;;;;;;;;;23.60;99.90;;;;;;5034905;28;19931;-67
2023/06/11 09:10:21;;;;;;;;;;;23.70;99.90;;;;;;5052658;28;19935;-67
2023/06/11 09:12:54;;;;;;;;;;;23.80;99.90;;;;;;5052208;28;19925;-67
2023/06/11 09:15:24;;;;;;;;;;;23.90;99.90;;;;;;5052196;28;19966;-67
2023/06/11 09:17:50;;;;;;;;;;;24.00;99.90;;;;;;5052689;28;20019;-68
2023/06/11 09:20:22;;;;;;;;;;;24.10;99.90;;;;;;5060961;28;20461;-68
2023/06/11 09:22:55;;;;;;;;;;;24.20;99.90;;;;;;5053576;28;19935;-67
2023/06/11 09:25:23;;;;;;;;;;;24.20;99.90;;;;;;5053879;28;20407;-67
2023/06/11 09:27:49;;;;;;;;;;;24.30;99.90;;;;;;5051992;28;20013;-66
2023/06/11 09:30:17;;;;;;;;;;;24.40;99.90;;;;;;5051451;28;19933;-68
2023/06/11 09:32:46;;;;;;;;;;;24.40;99.90;;;;;;5053462;28;20035;-67
2023/06/11 09:35:13;;;;;;;;;;;24.30;99.90;;;;;;5053207;28;19933;-67
2023/06/11 09:37:42;;;;;;;;;;;24.30;99.90;;;;;;5052207;28;19947;-65
2023/06/11 09:40:10;;;;;;;;;;;24.40;99.90;;;;;;5052175;28;19975;-66
2023/06/11 09:42:46;;;;;;;;;;;24.50;99.90;;;;;;5036211;28;20375;-66
2023/06/11 09:45:19;;;;;;;;;;;24.70;99.90;;;;;;5053533;28;20300;-66
2023/06/11 09:47:51;;;;;;;;;;;24.80;99.90;;;;;;5052375;28;19955;-66
2023/06/11 09:50:23;;;;;;;;;;;24.80;99.90;;;;;;5050165;28;19932;-66
2023/06/11 09:52:55;;;;;;;;;;;24.80;99.90;;;;;;5053502;28;20068;-66
2023/06/11 09:55:28;;;;;;;;;;;24.80;99.90;;;;;;5054158;28;19932;-66
2023/06/11 09:58:04;;;;;;;;;;;24.80;99.90;;;;;;5052682;28;19935;-66
2023/06/11 10:00:33;;;;;;;;;;;24.90;99.90;;;;;;5049904;28;19928;-66
2023/06/11 10:03:05;;;;;;;;;;;25.00;99.90;;;;;;5051896;28;20458;-67
2023/06/11 10:05:37;;;;;;;;;;;25.10;99.40;;;;;;5053424;28;19931;-66
2023/06/11 10:08:06;;;;;;;;;;;25.20;99.90;;;;;;5053080;28;20015;-67
2023/06/11 10:10:35;;;;;;;;;;;25.40;99.40;;;;;;5051937;28;19932;-65
2023/06/11 10:13:02;;;;;;;;;;;25.50;98.80;;;;;;5050924;28;20278;-66
2023/06/11 10:15:35;;;;;;;;;;;25.60;98.80;;;;;;5052511;28;19936;-66
2023/06/11 10:18:14;;;;;;;;;;;25.60;98.20;;;;;;5050969;28;19947;-66
2023/06/11 10:20:52;;;;;;;;;;;25.60;97.60;;;;;;5052259;28;19924;-66
2023/06/11 10:23:33;;;;;;;;;;;25.70;96.60;;;;;;5052152;28;19932;-65
2023/06/11 10:26:06;;;;;;;;;;;25.80;96.90;;;;;;5050174;28;20048;-66
2023/06/11 10:28:42;;;;;;;;;;;25.90;96.20;;;;;;5049802;28;19931;-65
2023/06/11 10:31:34;;;;;;;;;;;26.00;96.20;;;;;;5049766;28;19943;-65
2023/06/11 10:34:06;;;;;;;;;;;26.10;95.90;;;;;;5045926;28;19944;-66
2023/06/11 10:36:40;;;;;;;;;;;26.30;96.20;;;;;;5052374;28;19924;-67
2023/06/11 10:39:23;;;;;;;;;;;26.40;94.70;;;;;;5051897;28;19932;-65
2023/06/11 10:42:02;;;;;;;;;;;26.50;94.30;;;;;;5051622;28;20458;-68
2023/06/11 10:44:39;;;;;;;;;;;26.50;93.30;;;;;;5051556;28;19931;-67
2023/06/11 10:47:11;;;;;;;;;;;26.60;93.50;;;;;;5056255;28;19928;-67
2023/06/11 10:49:43;;;;;;;;;;;26.60;93.00;;;;;;5068135;28;20007;-67
2023/06/11 10:52:15;;;;;;;;;;;26.50;92.40;;;;;;5043287;22;20422;-65
2023/06/11 10:54:48;;;;;;;;;;;26.50;93.10;;;;;;5020971;28;19926;-66
2023/06/11 10:57:23;;;;;;;;;;;26.50;92.70;;;;;;5055117;28;19926;-66
2023/06/11 10:59:50;;;;;;;;;;;26.50;92.90;;;;;;5023540;28;19956;-66
2023/06/11 11:02:22;;;;;;;;;;;26.50;93.00;;;;;;5022438;28;19929;-65
2023/06/11 11:04:55;;;;;;;;;;;26.30;91.90;;;;;;5027504;28;20384;-66
2023/06/11 11:07:33;;;;;;;;;;;26.10;91.60;;;;;;5021300;28;20298;-65
2023/06/11 11:10:06;;;;;;;;;;;26.20;91.50;;;;;;5022623;28;19932;-65
2023/06/11 11:12:39;;;;;;;;;;;26.40;91.10;;;;;;5024854;28;20015;-65
2023/06/11 11:15:13;;;;;;;;;;;26.60;91.20;;;;;;5025999;28;19947;-65
2023/06/11 11:17:46;;;;;;;;;;;26.90;90.40;;;;;;5026594;28;19925;-65
2023/06/11 11:20:19;;;;;;;;;;;26.90;90.60;;;;;;5036266;28;20012;-65
2023/06/11 11:22:55;;;;;;;;;;;27.00;90.00;;;;;;5021458;28;19932;-64
2023/06/11 11:25:31;;;;;;;;;;;27.10;87.50;;;;;;5022753;28;19925;-65
2023/06/11 11:27:58;;;;;;;;;;;27.20;87.80;;;;;;5021610;28;20595;-65
2023/06/11 11:30:30;;;;;;;;;;;27.40;88.70;;;;;;5026571;28;19932;-65
2023/06/11 11:33:02;;;;;;;;;;;27.50;88.80;;;;;;5009008;28;19925;-65
2023/06/11 11:35:44;;;;;;;;;;;27.70;86.60;;;;;;5028959;28;19925;-65
2023/06/11 11:38:15;;;;;;;;;;;27.80;85.00;;;;;;5022852;28;20450;-65
2023/06/11 11:40:57;;;;;;;;;;;27.80;85.20;;;;;;5025965;28;19933;-65
2023/06/11 11:43:49;;;;;;;;;;;27.80;82.90;;;;;;5029922;28;20431;-65
2023/06/11 11:46:23;;;;;;;;;;;28.00;83.20;;;;;;5026135;28;19932;-65
2023/06/11 11:48:55;;;;;;;;;;;27.90;84.10;;;;;;5037205;28;20416;-65
2023/06/11 11:51:23;;;;;;;;;;;28.10;82.30;;;;;;5021372;28;19948;-65
2023/06/11 11:53:56;;;;;;;;;;;28.00;79.90;;;;;;5021000;28;19929;-65
2023/06/11 11:56:32;;;;;;;;;;;27.90;78.40;;;;;;5026876;28;19929;-64
2023/06/11 11:59:04;;;;;;;;;;;27.90;80.30;;;;;;5022991;28;20017;-64
2023/06/11 12:01:37;;;;;;;;;;;28.10;79.90;;;;;;5026600;28;19940;-65
2023/06/11 12:04:09;;;;;;;;;;;28.40;80.60;;;;;;5046732;28;20389;-64
2023/06/11 12:06:40;;;;;;;;;;;28.60;79.00;;;;;;5026983;28;19925;-64
2023/06/11 12:09:12;;;;;;;;;;;28.70;76.00;;;;;;5027010;28;20389;-64
2023/06/11 12:11:44;;;;;;;;;;;28.80;75.70;;;;;;5026995;28;19925;-64
2023/06/11 12:14:16;;;;;;;;;;;28.90;73.80;;;;;;5027131;28;19983;-65
2023/06/11 12:16:48;;;;;;;;;;;29.00;76.20;;;;;;5039063;28;19925;-65
2023/06/11 12:19:20;;;;;;;;;;;29.00;74.60;;;;;;5024807;28;19929;-65
2023/06/11 12:21:53;;;;;;;;;;;29.10;75.90;;;;;;5030385;28;20366;-65
2023/06/11 12:24:25;;;;;;;;;;;29.10;75.10;;;;;;5029311;28;19936;-65
2023/06/11 12:26:57;;;;;;;;;;;29.20;73.10;;;;;;5011132;28;19944;-65
2023/06/11 12:29:28;;;;;;;;;;;29.30;72.90;;;;;;5025143;28;19943;-65
2023/06/11 12:32:01;;;;;;;;;;;29.40;72.90;;;;;;5024744;28;20026;-64
2023/06/11 12:34:27;;;;;;;;;;;29.50;70.90;;;;;;5023419;28;19925;-65
2023/06/11 12:37:00;;;;;;;;;;;29.30;68.60;;;;;;5025358;28;20328;-65
2023/06/11 12:39:32;;;;;;;;;;;29.20;72.10;;;;;;5028379;28;19933;-65
2023/06/11 12:42:04;;;;;;;;;;;29.20;69.70;;;;;;5024128;28;19929;-65
2023/06/11 12:44:31;;;;;;;;;;;29.10;66.40;;;;;;5026631;28;19948;-65
2023/06/11 12:47:02;;;;;;;;;;;29.10;70.70;;;;;;5016446;28;19925;-65
2023/06/11 12:49:34;;;;;;;;;;;29.30;71.30;;;;;;5016191;28;20432;-64
2023/06/11 12:52:07;;;;;;;;;;;29.10;70.30;;;;;;5018705;28;19933;-64
2023/06/11 12:54:33;;;;;;;;;;;28.80;70.50;;;;;;5021142;28;19964;-64
2023/06/11 12:57:01;;;;;;;;;;;28.60;71.70;;;;;;5022400;28;20507;-65
2023/06/11 12:59:33;;;;;;;;;;;28.70;70.50;;;;;;5020752;28;19965;-64
2023/06/11 13:01:59;;;;;;;;;;;29.00;71.00;;;;;;5023159;28;19929;-65
2023/06/11 13:04:31;;;;;;;;;;;29.20;68.00;;;;;;5016387;28;20393;-65
2023/06/11 13:07:03;;;;;;;;;;;29.40;68.60;;;;;;5032232;28;20015;-64
2023/06/11 13:09:35;;;;;;;;;;;29.60;69.30;;;;;;5015295;28;19929;-65
2023/06/11 13:12:07;;;;;;;;;;;29.70;69.60;;;;;;5018071;28;20050;-64
2023/06/11 13:14:38;;;;;;;;;;;29.80;67.10;;;;;;5027775;28;20411;-64
2023/06/11 13:17:05;;;;;;;;;;;30.00;66.60;;;;;;5030024;28;19929;-67
2023/06/11 13:19:37;;;;;;;;;;;29.90;66.30;;;;;;5028180;28;20456;-65
2023/06/11 13:22:12;;;;;;;;;;;29.90;65.60;;;;;;5024464;28;19933;-65
2023/06/11 13:24:44;;;;;;;;;;;30.10;67.40;;;;;;5019811;28;19929;-65
2023/06/11 13:27:15;;;;;;;;;;;30.30;67.10;;;;;;5019371;28;19939;-65
2023/06/11 13:29:47;;;;;;;;;;;30.60;68.40;;;;;;5026358;28;19937;-64
2023/06/11 13:32:19;;;;;;;;;;;30.50;66.10;;;;;;5026739;28;20289;-64
2023/06/11 13:34:46;;;;;;;;;;;30.10;64.10;;;;;;5015425;28;19925;-64
2023/06/11 13:37:18;;;;;;;;;;;29.80;62.60;;;;;;5020690;28;19932;-65
2023/06/11 13:39:50;;;;;;;;;;;29.80;61.70;;;;;;5025992;28;20019;-65
2023/06/11 13:42:22;;;;;;;;;;;30.00;61.80;;;;;;5022356;28;19925;-64
2023/06/11 13:44:53;;;;;;;;;;;30.00;61.90;;;;;;5022360;28;20312;-65
2023/06/11 13:47:25;;;;;;;;;;;30.20;63.50;;;;;;5021486;28;19932;-65
2023/06/11 13:49:57;;;;;;;;;;;30.30;60.80;;;;;;5020458;28;19925;-64
2023/06/11 13:52:29;;;;;;;;;;;30.60;60.80;;;;;;5023707;28;20297;-65
2023/06/11 13:55:00;;;;;;;;;;;30.80;61.40;;;;;;5018233;28;19932;-65
2023/06/11 13:57:32;;;;;;;;;;;31.10;61.00;;;;;;5016841;28;19941;-65
2023/06/11 14:00:04;;;;;;;;;;;31.20;59.80;;;;;;5018341;28;19926;-64
2023/06/11 14:02:39;;;;;;;;;;;31.00;59.70;;;;;;5027881;28;19930;-64
2023/06/11 14:05:11;;;;;;;;;;;31.30;61.50;;;;;;5029371;28;20308;-65
2023/06/11 14:07:43;;;;;;;;;;;31.20;58.80;;;;;;5024756;28;19925;-65
2023/06/11 14:10:14;;;;;;;;;;;31.10;59.20;;;;;;5032025;28;19969;-64
2023/06/11 14:12:46;;;;;;;;;;;31.20;59.20;;;;;;5022519;28;19925;-65
2023/06/11 14:15:18;;;;;;;;;;;31.30;57.30;;;;;;5014779;28;20298;-65
2023/06/11 14:17:50;;;;;;;;;;;31.10;57.30;;;;;;5020582;28;20484;-65
2023/06/11 14:20:21;;;;;;;;;;;31.10;57.20;;;;;;5015838;28;20381;-65
2023/06/11 14:22:53;;;;;;;;;;;31.20;58.00;;;;;;5015838;28;19926;-65
2023/06/11 14:25:25;;;;;;;;;;;31.30;56.90;;;;;;5031304;28;19925;-65
2023/06/11 14:27:56;;;;;;;;;;;31.50;57.30;;;;;;5029570;28;19928;-65
2023/06/11 14:30:28;;;;;;;;;;;31.50;56.60;;;;;;5030946;28;19936;-66
2023/06/11 14:33:00;;;;;;;;;;;31.50;55.40;;;;;;5030576;28;19925;-67
2023/06/11 14:35:31;;;;;;;;;;;31.50;55.20;;;;;;5023265;28;19956;-65
2023/06/11 14:38:03;;;;;;;;;;;31.60;54.00;;;;;;5021122;28;19925;-65
2023/06/11 14:40:35;;;;;;;;;;;31.80;51.60;;;;;;5018801;28;19932;-65
2023/06/11 14:43:02;;;;;;;;;;;32.00;51.40;;;;;;5016644;28;19933;-65